sensor_id;sensor_type;location;lat;lon;timestamp;pressure;altitude;pressure_sealevel;temperature;humidity
56737;BME280;42618;51.226;4.910;2023-05-19T00:02:24;49623.34;;;-146.94;61.31
56737;BME280;42618;51.226;4.910;2023-05-19T00:04:52;49647.25;;;-146.94;61.21
56737;BME280;42618;51.226;4.910;2023-05-19T00:07:21;49635.31;;;-146.94;62.01
56737;BME280;42618;51.226;4.910;2023-05-19T00:09:52;49625.34;;;-146.94;61.35
56737;BME280;42618;51.226;4.910;2023-05-19T00:12:19;49645.28;;;-146.94;61.03
56737;BME280;42618;51.226;4.910;2023-05-19T00:14:46;49651.25;;;-146.94;61.75
56737;BME280;42618;51.226;4.910;2023-05-19T00:17:13;49607.41;;;-146.94;62.49
56737;BME280;42618;51.226;4.910;2023-05-19T00:19:42;49667.19;;;-146.94;62.89
56737;BME280;42618;51.226;4.910;2023-05-19T00:22:10;49653.25;;;-146.94;62.96
56737;BME280;42618;51.226;4.910;2023-05-19T00:24:37;49677.16;;;-146.94;63.15
56737;BME280;42618;51.226;4.910;2023-05-19T00:27:04;49657.22;;;-146.94;63.74
56737;BME280;42618;51.226;4.910;2023-05-19T00:29:31;49669.19;;;-146.94;63.62
56737;BME280;42618;51.226;4.910;2023-05-19T00:31:57;49627.31;;;-146.94;64.13
56737;BME280;42618;51.226;4.910;2023-05-19T00:34:25;49647.25;;;-146.94;64.03
56737;BME280;42618;51.226;4.910;2023-05-19T00:36:51;49627.31;;;-146.94;64.22
56737;BME280;42618;51.226;4.910;2023-05-19T00:39:18;49621.34;;;-146.94;64.01
56737;BME280;42618;51.226;4.910;2023-05-19T00:41:45;49663.22;;;-146.94;65.13
56737;BME280;42618;51.226;4.910;2023-05-19T00:44:12;49637.28;;;-146.94;64.75
56737;BME280;42618;51.226;4.910;2023-05-19T00:46:38;49671.19;;;-146.94;64.32
56737;BME280;42618;51.226;4.910;2023-05-19T00:49:07;49661.22;;;-146.94;64.52
56737;BME280;42618;51.226;4.910;2023-05-19T00:51:34;49643.28;;;-146.94;64.79
56737;BME280;42618;51.226;4.910;2023-05-19T00:54:02;49679.16;;;-146.94;65.28
56737;BME280;42618;51.226;4.910;2023-05-19T00:56:30;49655.25;;;-146.94;65.17
56737;BME280;42618;51.226;4.910;2023-05-19T00:58:59;49651.25;;;-146.94;65.17
56737;BME280;42618;51.226;4.910;2023-05-19T01:01:26;49667.19;;;-146.94;65.11
56737;BME280;42618;51.226;4.910;2023-05-19T01:03:53;49631.31;;;-146.94;66.28
56737;BME280;42618;51.226;4.910;2023-05-19T01:06:24;49651.25;;;-146.94;65.61
56737;BME280;42618;51.226;4.910;2023-05-19T01:08:53;49657.22;;;-146.94;66.49
56737;BME280;42618;51.226;4.910;2023-05-19T01:11:20;49643.28;;;-146.94;65.69
56737;BME280;42618;51.226;4.910;2023-05-19T01:13:47;49631.31;;;-146.94;66.58
56737;BME280;42618;51.226;4.910;2023-05-19T01:16:26;49643.28;;;-146.94;66.20
56737;BME280;42618;51.226;4.910;2023-05-19T01:19:26;49639.28;;;-146.94;66.20
56737;BME280;42618;51.226;4.910;2023-05-19T01:22:18;49659.22;;;-146.94;66.87
56737;BME280;42618;51.226;4.910;2023-05-19T01:28:25;49635.31;;;-146.94;66.87
56737;BME280;42618;51.226;4.910;2023-05-19T01:30:54;49651.25;;;-146.94;67.91
56737;BME280;42618;51.226;4.910;2023-05-19T01:33:22;49623.34;;;-146.94;67.43
56737;BME280;42618;51.226;4.910;2023-05-19T01:35:50;49639.28;;;-146.94;68.63
56737;BME280;42618;51.226;4.910;2023-05-19T01:38:19;49643.28;;;-146.94;68.33
56737;BME280;42618;51.226;4.910;2023-05-19T01:40:47;49671.19;;;-146.94;68.18
56737;BME280;42618;51.226;4.910;2023-05-19T01:43:20;49651.25;;;-146.94;68.41
56737;BME280;42618;51.226;4.910;2023-05-19T01:45:47;49685.13;;;-146.94;68.31
56737;BME280;42618;51.226;4.910;2023-05-19T01:48:14;49675.19;;;-146.94;68.81
56737;BME280;42618;51.226;4.910;2023-05-19T01:50:43;49665.22;;;-146.94;69.69
56737;BME280;42618;51.226;4.910;2023-05-19T01:53:10;49669.19;;;-146.94;69.88
56737;BME280;42618;51.226;4.910;2023-05-19T01:55:46;49657.22;;;-146.94;70.07
56737;BME280;42618;51.226;4.910;2023-05-19T01:58:24;49659.22;;;-146.94;70.20
56737;BME280;42618;51.226;4.910;2023-05-19T02:06:48;49659.22;;;-146.94;71.24
56737;BME280;42618;51.226;4.910;2023-05-19T02:09:17;49683.16;;;-146.94;71.22
56737;BME280;42618;51.226;4.910;2023-05-19T02:11:54;49663.22;;;-146.94;71.76
56737;BME280;42618;51.226;4.910;2023-05-19T02:14:52;49663.22;;;-146.94;72.16
56737;BME280;42618;51.226;4.910;2023-05-19T02:17:21;49669.19;;;-146.94;72.48
56737;BME280;42618;51.226;4.910;2023-05-19T02:19:49;49667.19;;;-146.94;72.45
56737;BME280;42618;51.226;4.910;2023-05-19T02:22:16;49647.25;;;-146.94;72.72
56737;BME280;42618;51.226;4.910;2023-05-19T02:24:43;49665.22;;;-146.94;73.07
56737;BME280;42618;51.226;4.910;2023-05-19T02:27:12;49681.16;;;-146.94;74.18
56737;BME280;42618;51.226;4.910;2023-05-19T02:29:38;49695.09;;;-146.94;74.45
56737;BME280;42618;51.226;4.910;2023-05-19T02:32:06;49653.25;;;-146.94;75.45
56737;BME280;42618;51.226;4.910;2023-05-19T02:34:33;49663.22;;;-146.94;75.71
56737;BME280;42618;51.226;4.910;2023-05-19T02:36:59;49655.25;;;-146.94;76.04
56737;BME280;42618;51.226;4.910;2023-05-19T02:39:26;49659.22;;;-146.94;76.41
56737;BME280;42618;51.226;4.910;2023-05-19T02:41:55;49651.25;;;-146.94;76.93
56737;BME280;42618;51.226;4.910;2023-05-19T02:44:22;49675.19;;;-146.94;77.46
56737;BME280;42618;51.226;4.910;2023-05-19T02:46:49;49671.19;;;-146.94;77.97
56737;BME280;42618;51.226;4.910;2023-05-19T02:49:16;49679.16;;;-146.94;78.05
56737;BME280;42618;51.226;4.910;2023-05-19T02:51:43;49673.19;;;-146.94;78.89
56737;BME280;42618;51.226;4.910;2023-05-19T02:54:10;49707.06;;;-146.94;79.20
56737;BME280;42618;51.226;4.910;2023-05-19T02:56:37;49687.13;;;-146.94;79.63
56737;BME280;42618;51.226;4.910;2023-05-19T02:59:04;49689.13;;;-146.94;79.72
56737;BME280;42618;51.226;4.910;2023-05-19T03:01:31;49683.16;;;-146.94;79.87
56737;BME280;42618;51.226;4.910;2023-05-19T03:03:59;49659.22;;;-146.94;80.06
56737;BME280;42618;51.226;4.910;2023-05-19T03:06:26;49655.25;;;-146.94;80.34
56737;BME280;42618;51.226;4.910;2023-05-19T03:08:53;49707.06;;;-146.94;81.12
56737;BME280;42618;51.226;4.910;2023-05-19T03:11:20;49645.28;;;-146.94;81.38
56737;BME280;42618;51.226;4.910;2023-05-19T03:13:48;49687.13;;;-146.94;81.91
56737;BME280;42618;51.226;4.910;2023-05-19T03:16:15;49683.16;;;-146.94;82.39
56737;BME280;42618;51.226;4.910;2023-05-19T03:18:42;49695.09;;;-146.94;82.64
56737;BME280;42618;51.226;4.910;2023-05-19T03:21:08;49683.16;;;-146.94;82.65
56737;BME280;42618;51.226;4.910;2023-05-19T03:23:36;49695.09;;;-146.94;82.77
56737;BME280;42618;51.226;4.910;2023-05-19T03:26:03;49643.28;;;-146.94;83.35
56737;BME280;42618;51.226;4.910;2023-05-19T03:28:30;49701.09;;;-146.94;83.50
56737;BME280;42618;51.226;4.910;2023-05-19T03:30:57;49653.25;;;-146.94;84.03
56737;BME280;42618;51.226;4.910;2023-05-19T03:33:27;49645.28;;;-146.94;84.12
56737;BME280;42618;51.226;4.910;2023-05-19T03:35:55;49651.25;;;-146.94;84.29
56737;BME280;42618;51.226;4.910;2023-05-19T03:38:23;49683.16;;;-146.94;84.18
56737;BME280;42618;51.226;4.910;2023-05-19T03:40:55;49667.19;;;-146.94;84.46
56737;BME280;42618;51.226;4.910;2023-05-19T03:43:22;49679.16;;;-146.94;84.96
56737;BME280;42618;51.226;4.910;2023-05-19T03:45:55;49683.16;;;-146.94;85.30
56737;BME280;42618;51.226;4.910;2023-05-19T03:48:40;49707.06;;;-146.94;85.41
56737;BME280;42618;51.226;4.910;2023-05-19T03:51:16;49679.16;;;-146.94;84.83
56737;BME280;42618;51.226;4.910;2023-05-19T03:53:46;49653.25;;;-146.94;86.06
56737;BME280;42618;51.226;4.910;2023-05-19T03:56:14;49665.22;;;-146.94;86.02
56737;BME280;42618;51.226;4.910;2023-05-19T03:58:43;49701.09;;;-146.94;85.77
56737;BME280;42618;51.226;4.910;2023-05-19T04:01:10;49675.19;;;-146.94;86.22
56737;BME280;42618;51.226;4.910;2023-05-19T04:03:37;49687.13;;;-146.94;86.77
56737;BME280;42618;51.226;4.910;2023-05-19T04:06:04;49695.09;;;-146.94;86.54
56737;BME280;42618;51.226;4.910;2023-05-19T04:08:31;49651.25;;;-146.94;86.57
56737;BME280;42618;51.226;4.910;2023-05-19T04:10:58;49681.16;;;-146.94;87.02
56737;BME280;42618;51.226;4.910;2023-05-19T04:13:24;49711.06;;;-146.94;86.71
56737;BME280;42618;51.226;4.910;2023-05-19T04:15:51;49687.13;;;-146.94;86.59
56737;BME280;42618;51.226;4.910;2023-05-19T04:18:18;49687.13;;;-146.94;86.59
56737;BME280;42618;51.226;4.910;2023-05-19T04:20:45;49687.13;;;-146.94;86.54
56737;BME280;42618;51.226;4.910;2023-05-19T04:23:12;49695.09;;;-146.94;87.07
56737;BME280;42618;51.226;4.910;2023-05-19T04:25:38;49703.09;;;-146.94;86.99
56737;BME280;42618;51.226;4.910;2023-05-19T04:28:06;49675.19;;;-146.94;87.03
56737;BME280;42618;51.226;4.910;2023-05-19T04:30:33;49667.19;;;-146.94;87.02
56737;BME280;42618;51.226;4.910;2023-05-19T04:33:00;49657.22;;;-146.94;87.20
56737;BME280;42618;51.226;4.910;2023-05-19T04:35:30;49659.22;;;-146.94;87.17
56737;BME280;42618;51.226;4.910;2023-05-19T04:37:59;49683.16;;;-146.94;87.12
56737;BME280;42618;51.226;4.910;2023-05-19T04:40:30;49669.19;;;-146.94;86.73
56737;BME280;42618;51.226;4.910;2023-05-19T04:42:57;49683.16;;;-146.94;87.19
56737;BME280;42618;51.226;4.910;2023-05-19T04:45:24;49683.16;;;-146.94;87.10
56737;BME280;42618;51.226;4.910;2023-05-19T04:47:54;49687.13;;;-146.94;87.22
56737;BME280;42618;51.226;4.910;2023-05-19T04:50:24;49703.09;;;-146.94;86.62
56737;BME280;42618;51.226;4.910;2023-05-19T04:52:51;49733.00;;;-146.94;86.62
56737;BME280;42618;51.226;4.910;2023-05-19T04:55:18;49669.19;;;-146.94;86.65
56737;BME280;42618;51.226;4.910;2023-05-19T04:57:46;49711.06;;;-146.94;86.62
56737;BME280;42618;51.226;4.910;2023-05-19T05:00:14;49671.19;;;-146.94;86.20
56737;BME280;42618;51.226;4.910;2023-05-19T05:02:51;49641.28;;;-146.94;85.86
56737;BME280;42618;51.226;4.910;2023-05-19T05:05:19;49687.13;;;-146.94;85.57
56737;BME280;42618;51.226;4.910;2023-05-19T05:07:46;49667.19;;;-146.94;85.46
56737;BME280;42618;51.226;4.910;2023-05-19T05:10:14;49683.16;;;-146.94;85.44
56737;BME280;42618;51.226;4.910;2023-05-19T05:12:41;49681.16;;;-146.94;85.27
56737;BME280;42618;51.226;4.910;2023-05-19T05:15:08;49667.19;;;-146.94;84.86
56737;BME280;42618;51.226;4.910;2023-05-19T05:17:36;49681.16;;;-146.94;84.76
56737;BME280;42618;51.226;4.910;2023-05-19T05:20:04;49659.22;;;-146.94;84.28
56737;BME280;42618;51.226;4.910;2023-05-19T05:22:32;49675.19;;;-146.94;84.38
56737;BME280;42618;51.226;4.910;2023-05-19T05:25:00;49713.06;;;-146.94;84.57
56737;BME280;42618;51.226;4.910;2023-05-19T05:27:27;49661.22;;;-146.94;85.16
56737;BME280;42618;51.226;4.910;2023-05-19T05:29:54;49667.19;;;-146.94;85.32
56737;BME280;42618;51.226;4.910;2023-05-19T05:32:24;49711.06;;;-146.94;84.73
56737;BME280;42618;51.226;4.910;2023-05-19T05:34:52;49685.13;;;-146.94;84.65
56737;BME280;42618;51.226;4.910;2023-05-19T05:37:18;49667.19;;;-146.94;84.57
56737;BME280;42618;51.226;4.910;2023-05-19T05:39:45;49651.25;;;-146.94;84.15
56737;BME280;42618;51.226;4.910;2023-05-19T05:42:12;49683.16;;;-146.94;84.40
56737;BME280;42618;51.226;4.910;2023-05-19T05:44:39;49685.13;;;-146.94;84.15
56737;BME280;42618;51.226;4.910;2023-05-19T05:47:06;49651.25;;;-146.94;83.67
56737;BME280;42618;51.226;4.910;2023-05-19T05:49:34;49643.28;;;-146.94;83.11
56737;BME280;42618;51.226;4.910;2023-05-19T05:52:05;49703.09;;;-146.94;81.93
56737;BME280;42618;51.226;4.910;2023-05-19T05:54:40;49715.03;;;-146.94;82.10
56737;BME280;42618;51.226;4.910;2023-05-19T05:57:07;49667.19;;;-146.94;81.80
56737;BME280;42618;51.226;4.910;2023-05-19T05:59:34;49667.19;;;-146.94;81.45
56737;BME280;42618;51.226;4.910;2023-05-19T06:02:01;49669.19;;;-146.94;81.61
56737;BME280;42618;51.226;4.910;2023-05-19T06:04:29;49671.19;;;-146.94;81.75
56737;BME280;42618;51.226;4.910;2023-05-19T06:06:56;49723.03;;;-146.94;82.47
56737;BME280;42618;51.226;4.910;2023-05-19T06:09:30;49687.13;;;-146.94;80.89
56737;BME280;42618;51.226;4.910;2023-05-19T06:11:59;49681.16;;;-146.94;81.18
56737;BME280;42618;51.226;4.910;2023-05-19T06:14:31;49717.03;;;-146.94;80.14
56737;BME280;42618;51.226;4.910;2023-05-19T06:17:28;49707.06;;;-146.94;79.51
56737;BME280;42618;51.226;4.910;2023-05-19T06:19:56;49703.09;;;-146.94;78.53
56737;BME280;42618;51.226;4.910;2023-05-19T06:22:23;49647.25;;;-146.94;77.29
56737;BME280;42618;51.226;4.910;2023-05-19T06:24:52;49677.16;;;-146.94;77.08
56737;BME280;42618;51.226;4.910;2023-05-19T06:27:19;49667.19;;;-146.94;76.77
56737;BME280;42618;51.226;4.910;2023-05-19T06:29:46;49657.22;;;-146.94;76.69
56737;BME280;42618;51.226;4.910;2023-05-19T06:32:13;49663.22;;;-146.94;75.67
56737;BME280;42618;51.226;4.910;2023-05-19T06:34:41;49673.19;;;-146.94;75.40
56737;BME280;42618;51.226;4.910;2023-05-19T06:37:08;49651.25;;;-146.94;75.55
56737;BME280;42618;51.226;4.910;2023-05-19T06:39:36;49667.19;;;-146.94;74.20
56737;BME280;42618;51.226;4.910;2023-05-19T06:42:03;49647.25;;;-146.94;74.12
56737;BME280;42618;51.226;4.910;2023-05-19T06:44:50;49659.22;;;-146.94;73.29
56737;BME280;42618;51.226;4.910;2023-05-19T06:47:18;49671.19;;;-146.94;73.49
56737;BME280;42618;51.226;4.910;2023-05-19T06:49:45;49667.19;;;-146.94;72.60
56737;BME280;42618;51.226;4.910;2023-05-19T06:52:12;49667.19;;;-146.94;71.68
56737;BME280;42618;51.226;4.910;2023-05-19T06:54:39;49641.28;;;-146.94;70.63
56737;BME280;42618;51.226;4.910;2023-05-19T06:57:06;49655.25;;;-146.94;70.94
56737;BME280;42618;51.226;4.910;2023-05-19T06:59:32;49645.28;;;-146.94;69.78
56737;BME280;42618;51.226;4.910;2023-05-19T07:01:59;49643.28;;;-146.94;68.48
56737;BME280;42618;51.226;4.910;2023-05-19T07:04:27;49651.25;;;-146.94;68.26
56737;BME280;42618;51.226;4.910;2023-05-19T07:06:55;49651.25;;;-146.94;67.49
56737;BME280;42618;51.226;4.910;2023-05-19T07:09:22;49633.31;;;-146.94;68.45
56737;BME280;42618;51.226;4.910;2023-05-19T07:11:49;49657.22;;;-146.94;66.77
56737;BME280;42618;51.226;4.910;2023-05-19T07:14:16;49679.16;;;-146.94;66.07
56737;BME280;42618;51.226;4.910;2023-05-19T07:16:43;49649.25;;;-146.94;65.17
56737;BME280;42618;51.226;4.910;2023-05-19T07:19:10;49647.25;;;-146.94;65.15
56737;BME280;42618;51.226;4.910;2023-05-19T07:21:36;49615.38;;;-146.94;62.68
56737;BME280;42618;51.226;4.910;2023-05-19T07:24:03;49599.41;;;-146.94;62.35
56737;BME280;42618;51.226;4.910;2023-05-19T07:26:30;49643.28;;;-146.94;59.60
56737;BME280;42618;51.226;4.910;2023-05-19T07:28:57;49635.31;;;-146.94;60.40
56737;BME280;42618;51.226;4.910;2023-05-19T07:31:24;49613.38;;;-146.94;60.80
56737;BME280;42618;51.226;4.910;2023-05-19T07:33:51;49629.31;;;-146.94;61.13
56737;BME280;42618;51.226;4.910;2023-05-19T07:36:20;49637.28;;;-146.94;60.19
56737;BME280;42618;51.226;4.910;2023-05-19T07:38:47;49601.41;;;-146.94;58.09
56737;BME280;42618;51.226;4.910;2023-05-19T07:41:14;49635.31;;;-146.94;57.14
56737;BME280;42618;51.226;4.910;2023-05-19T07:43:41;49611.38;;;-146.94;58.55
56737;BME280;42618;51.226;4.910;2023-05-19T07:46:08;49635.31;;;-146.94;56.57
56737;BME280;42618;51.226;4.910;2023-05-19T07:48:35;49601.41;;;-146.94;56.42
56737;BME280;42618;51.226;4.910;2023-05-19T07:51:02;49615.38;;;-146.94;54.52
56737;BME280;42618;51.226;4.910;2023-05-19T07:53:29;49635.31;;;-146.94;54.17
56737;BME280;42618;51.226;4.910;2023-05-19T07:55:56;49611.38;;;-146.94;53.38
56737;BME280;42618;51.226;4.910;2023-05-19T07:58:25;49631.31;;;-146.94;51.52
56737;BME280;42618;51.226;4.910;2023-05-19T08:00:52;49635.31;;;-146.94;50.23
56737;BME280;42618;51.226;4.910;2023-05-19T08:03:18;49635.31;;;-146.94;51.04
56737;BME280;42618;51.226;4.910;2023-05-19T08:05:46;49623.34;;;-146.94;51.64
56737;BME280;42618;51.226;4.910;2023-05-19T08:08:13;49591.44;;;-146.94;51.21
56737;BME280;42618;51.226;4.910;2023-05-19T08:10:42;49591.44;;;-146.94;50.44
56737;BME280;42618;51.226;4.910;2023-05-19T08:13:09;49607.41;;;-146.94;49.55
56737;BME280;42618;51.226;4.910;2023-05-19T08:15:36;49599.41;;;-146.94;50.29
56737;BME280;42618;51.226;4.910;2023-05-19T08:18:03;49591.44;;;-146.94;50.56
56737;BME280;42618;51.226;4.910;2023-05-19T08:20:30;49597.44;;;-146.94;48.95
56737;BME280;42618;51.226;4.910;2023-05-19T08:22:58;49627.31;;;-146.94;49.43
56737;BME280;42618;51.226;4.910;2023-05-19T08:25:25;49603.41;;;-146.94;47.71
56737;BME280;42618;51.226;4.910;2023-05-19T08:27:52;49599.41;;;-146.94;47.05
56737;BME280;42618;51.226;4.910;2023-05-19T08:30:19;49637.28;;;-146.94;46.39
56737;BME280;42618;51.226;4.910;2023-05-19T08:32:45;49619.34;;;-146.94;47.89
56737;BME280;42618;51.226;4.910;2023-05-19T08:35:14;49577.50;;;-146.94;44.66
56737;BME280;42618;51.226;4.910;2023-05-19T08:37:41;49553.56;;;-146.94;44.04
56737;BME280;42618;51.226;4.910;2023-05-19T08:40:11;49589.44;;;-146.94;42.97
56737;BME280;42618;51.226;4.910;2023-05-19T08:42:41;49583.47;;;-146.94;41.78
56737;BME280;42618;51.226;4.910;2023-05-19T08:45:08;49591.44;;;-146.94;43.31
56737;BME280;42618;51.226;4.910;2023-05-19T08:47:35;49571.50;;;-146.94;41.80
56737;BME280;42618;51.226;4.910;2023-05-19T08:50:06;49597.44;;;-146.94;41.41
56737;BME280;42618;51.226;4.910;2023-05-19T08:52:45;49589.44;;;-146.94;40.53
56737;BME280;42618;51.226;4.910;2023-05-19T08:55:33;49581.47;;;-146.94;40.05
56737;BME280;42618;51.226;4.910;2023-05-19T08:58:03;49587.47;;;-146.94;38.95
56737;BME280;42618;51.226;4.910;2023-05-19T09:00:31;49579.47;;;-146.94;38.86
56737;BME280;42618;51.226;4.910;2023-05-19T09:03:00;49557.56;;;-146.94;39.42
56737;BME280;42618;51.226;4.910;2023-05-19T09:05:44;49575.50;;;-146.94;39.49
56737;BME280;42618;51.226;4.910;2023-05-19T09:08:12;49575.50;;;-146.94;38.88
56737;BME280;42618;51.226;4.910;2023-05-19T09:10:39;49575.50;;;-146.94;38.36
56737;BME280;42618;51.226;4.910;2023-05-19T09:13:06;49597.44;;;-146.94;38.04
56737;BME280;42618;51.226;4.910;2023-05-19T09:15:33;49567.53;;;-146.94;38.48
56737;BME280;42618;51.226;4.910;2023-05-19T09:18:10;49595.44;;;-146.94;38.94
56737;BME280;42618;51.226;4.910;2023-05-19T09:20:39;49575.50;;;-146.94;36.41
56737;BME280;42618;51.226;4.910;2023-05-19T09:23:11;49587.47;;;-146.94;36.37
56737;BME280;42618;51.226;4.910;2023-05-19T09:26:01;49567.53;;;-146.94;36.08
56737;BME280;42618;51.226;4.910;2023-05-19T09:28:29;49541.59;;;-146.94;36.86
56737;BME280;42618;51.226;4.910;2023-05-19T09:31:07;49561.53;;;-146.94;37.03
56737;BME280;42618;51.226;4.910;2023-05-19T09:33:38;49597.44;;;-146.94;36.71
56737;BME280;42618;51.226;4.910;2023-05-19T09:36:08;49587.47;;;-146.94;37.29
56737;BME280;42618;51.226;4.910;2023-05-19T09:38:37;49575.50;;;-146.94;37.19
56737;BME280;42618;51.226;4.910;2023-05-19T09:41:06;49563.53;;;-146.94;36.14
56737;BME280;42618;51.226;4.910;2023-05-19T09:43:33;49539.63;;;-146.94;35.66
56737;BME280;42618;51.226;4.910;2023-05-19T09:46:08;49553.56;;;-146.94;36.11
56737;BME280;42618;51.226;4.910;2023-05-19T09:48:38;49561.53;;;-146.94;35.99
56737;BME280;42618;51.226;4.910;2023-05-19T09:51:06;49525.66;;;-146.94;35.45
56737;BME280;42618;51.226;4.910;2023-05-19T09:53:35;49539.63;;;-146.94;34.66
56737;BME280;42618;51.226;4.910;2023-05-19T09:56:02;49589.44;;;-146.94;34.51
56737;BME280;42618;51.226;4.910;2023-05-19T09:58:33;49539.63;;;-146.94;34.29
56737;BME280;42618;51.226;4.910;2023-05-19T10:01:02;49535.63;;;-146.94;34.65
56737;BME280;42618;51.226;4.910;2023-05-19T10:03:30;49555.56;;;-146.94;33.37
56737;BME280;42618;51.226;4.910;2023-05-19T10:05:59;49543.59;;;-146.94;34.79
56737;BME280;42618;51.226;4.910;2023-05-19T10:08:27;49535.63;;;-146.94;34.31
56737;BME280;42618;51.226;4.910;2023-05-19T10:10:56;49551.56;;;-146.94;34.86
56737;BME280;42618;51.226;4.910;2023-05-19T10:13:24;49547.59;;;-146.94;34.27
56737;BME280;42618;51.226;4.910;2023-05-19T10:15:52;49505.72;;;-146.94;33.78
56737;BME280;42618;51.226;4.910;2023-05-19T10:18:25;49539.63;;;-146.94;33.63
56737;BME280;42618;51.226;4.910;2023-05-19T10:20:53;49525.66;;;-146.94;33.44
56737;BME280;42618;51.226;4.910;2023-05-19T10:23:20;49559.56;;;-146.94;33.02
56737;BME280;42618;51.226;4.910;2023-05-19T10:25:50;49555.56;;;-146.94;33.94
56737;BME280;42618;51.226;4.910;2023-05-19T10:28:18;49557.56;;;-146.94;33.70
56737;BME280;42618;51.226;4.910;2023-05-19T10:30:53;49571.50;;;-146.94;33.13
56737;BME280;42618;51.226;4.910;2023-05-19T10:33:33;49529.66;;;-146.94;33.45
56737;BME280;42618;51.226;4.910;2023-05-19T10:38:59;49527.66;;;-146.94;32.97
56737;BME280;42618;51.226;4.910;2023-05-19T10:41:36;49515.69;;;-146.94;32.97
56737;BME280;42618;51.226;4.910;2023-05-19T10:44:33;49515.69;;;-146.94;33.10
56737;BME280;42618;51.226;4.910;2023-05-19T10:47:05;49537.63;;;-146.94;33.09
56737;BME280;42618;51.226;4.910;2023-05-19T10:49:34;49519.69;;;-146.94;33.30
56737;BME280;42618;51.226;4.910;2023-05-19T10:52:02;49551.56;;;-146.94;33.37
56737;BME280;42618;51.226;4.910;2023-05-19T10:54:39;49545.59;;;-146.94;33.42
56737;BME280;42618;51.226;4.910;2023-05-19T10:57:07;49555.56;;;-146.94;32.20
56737;BME280;42618;51.226;4.910;2023-05-19T10:59:35;49545.59;;;-146.94;32.50
56737;BME280;42618;51.226;4.910;2023-05-19T11:02:04;49519.69;;;-146.94;32.22
56737;BME280;42618;51.226;4.910;2023-05-19T11:05:05;49519.69;;;-146.94;33.37
56737;BME280;42618;51.226;4.910;2023-05-19T11:07:33;49509.72;;;-146.94;33.27
56737;BME280;42618;51.226;4.910;2023-05-19T11:10:04;49489.78;;;-146.94;32.64
56737;BME280;42618;51.226;4.910;2023-05-19T11:12:39;49541.59;;;-146.94;33.16
56737;BME280;42618;51.226;4.910;2023-05-19T11:15:12;49537.63;;;-146.94;33.34
56737;BME280;42618;51.226;4.910;2023-05-19T11:17:40;49527.66;;;-146.94;34.20
56737;BME280;42618;51.226;4.910;2023-05-19T11:20:23;49485.78;;;-146.94;33.04
56737;BME280;42618;51.226;4.910;2023-05-19T11:23:16;49519.69;;;-146.94;31.88
56737;BME280;42618;51.226;4.910;2023-05-19T11:25:45;49485.78;;;-146.94;32.03
56737;BME280;42618;51.226;4.910;2023-05-19T11:28:17;49497.75;;;-146.94;32.03
56737;BME280;42618;51.226;4.910;2023-05-19T11:30:53;49477.81;;;-146.94;31.84
56737;BME280;42618;51.226;4.910;2023-05-19T11:33:20;49531.63;;;-146.94;31.82
56737;BME280;42618;51.226;4.910;2023-05-19T11:35:56;49519.69;;;-146.94;31.82
56737;BME280;42618;51.226;4.910;2023-05-19T11:38:25;49485.78;;;-146.94;31.54
56737;BME280;42618;51.226;4.910;2023-05-19T11:40:54;49483.81;;;-146.94;31.60
56737;BME280;42618;51.226;4.910;2023-05-19T11:43:24;49519.69;;;-146.94;30.96
56737;BME280;42618;51.226;4.910;2023-05-19T11:45:54;49499.75;;;-146.94;31.62
56737;BME280;42618;51.226;4.910;2023-05-19T11:48:21;49473.84;;;-146.94;31.08
56737;BME280;42618;51.226;4.910;2023-05-19T11:50:49;49529.66;;;-146.94;31.16
56737;BME280;42618;51.226;4.910;2023-05-19T11:53:16;49515.69;;;-146.94;31.20
56737;BME280;42618;51.226;4.910;2023-05-19T11:55:45;49511.72;;;-146.94;30.90
56737;BME280;42618;51.226;4.910;2023-05-19T11:58:14;49479.81;;;-146.94;31.43
56737;BME280;42618;51.226;4.910;2023-05-19T12:00:42;49491.78;;;-146.94;30.98
56737;BME280;42618;51.226;4.910;2023-05-19T12:03:11;49499.75;;;-146.94;30.52
56737;BME280;42618;51.226;4.910;2023-05-19T12:05:43;49457.88;;;-146.94;29.87
56737;BME280;42618;51.226;4.910;2023-05-19T12:08:12;49487.78;;;-146.94;29.94
56737;BME280;42618;51.226;4.910;2023-05-19T12:10:40;49483.81;;;-146.94;29.91
56737;BME280;42618;51.226;4.910;2023-05-19T12:13:07;49475.81;;;-146.94;29.27
56737;BME280;42618;51.226;4.910;2023-05-19T12:15:36;49473.84;;;-146.94;29.83
56737;BME280;42618;51.226;4.910;2023-05-19T12:18:03;49495.75;;;-146.94;29.54
56737;BME280;42618;51.226;4.910;2023-05-19T12:20:30;49491.78;;;-146.94;28.86
56737;BME280;42618;51.226;4.910;2023-05-19T12:22:59;49469.84;;;-146.94;30.18
56737;BME280;42618;51.226;4.910;2023-05-19T12:25:25;49457.88;;;-146.94;29.70
56737;BME280;42618;51.226;4.910;2023-05-19T12:27:59;49499.75;;;-146.94;29.48
56737;BME280;42618;51.226;4.910;2023-05-19T12:30:29;49507.72;;;-146.94;29.54
56737;BME280;42618;51.226;4.910;2023-05-19T12:32:57;49473.84;;;-146.94;29.98
56737;BME280;42618;51.226;4.910;2023-05-19T12:35:25;49427.97;;;-146.94;30.06
56737;BME280;42618;51.226;4.910;2023-05-19T12:37:53;49483.81;;;-146.94;29.40
56737;BME280;42618;51.226;4.910;2023-05-19T12:40:20;49491.78;;;-146.94;28.06
56737;BME280;42618;51.226;4.910;2023-05-19T12:42:48;49479.81;;;-146.94;27.96
56737;BME280;42618;51.226;4.910;2023-05-19T12:45:20;49455.88;;;-146.94;28.58
56737;BME280;42618;51.226;4.910;2023-05-19T12:47:48;49477.81;;;-146.94;29.00
56737;BME280;42618;51.226;4.910;2023-05-19T12:50:15;49483.81;;;-146.94;28.36
56737;BME280;42618;51.226;4.910;2023-05-19T12:52:47;49479.81;;;-146.94;27.76
56737;BME280;42618;51.226;4.910;2023-05-19T12:55:14;49467.84;;;-146.94;29.25
56737;BME280;42618;51.226;4.910;2023-05-19T12:57:43;49471.84;;;-146.94;27.97
56737;BME280;42618;51.226;4.910;2023-05-19T13:00:17;49467.84;;;-146.94;29.03
56737;BME280;42618;51.226;4.910;2023-05-19T13:03:04;49441.94;;;-146.94;28.55
56737;BME280;42618;51.226;4.910;2023-05-19T13:05:36;49437.94;;;-146.94;27.54